createdAt,value
2018-01-30T00:00:38.292Z,7.14
2018-01-30T00:03:07.517Z,7.10
2018-01-30T00:05:36.758Z,7.11
2018-01-30T00:08:05.982Z,7.09
2018-01-30T00:10:35.205Z,7.05
2018-01-30T00:13:04.402Z,7.04
2018-01-30T00:15:33.602Z,7.01
2018-01-30T00:18:02.818Z,7.03
2018-01-30T00:20:32.016Z,6.97
2018-01-30T00:23:01.310Z,7.01
2018-01-30T00:25:30.635Z,7.06
2018-01-30T00:28:00.591Z,6.99
2018-01-30T00:30:29.775Z,6.94
2018-01-30T00:32:59.047Z,6.93
2018-01-30T00:35:29.019Z,6.96
2018-01-30T00:37:58.346Z,6.90
2018-01-30T00:40:28.323Z,6.87
2018-01-30T00:42:57.534Z,6.86
2018-01-30T00:45:26.709Z,6.85
2018-01-30T00:47:56.029Z,6.79
2018-01-30T00:50:25.227Z,6.76
2018-01-30T00:52:54.403Z,6.77
2018-01-30T00:55:23.602Z,6.82
2018-01-30T00:57:54.381Z,6.78
2018-01-30T01:00:23.776Z,6.84
2018-01-30T01:02:53.088Z,6.82
2018-01-30T01:05:22.378Z,6.78
2018-01-30T01:07:52.347Z,6.81
2018-01-30T01:10:21.563Z,6.81
2018-01-30T01:12:50.824Z,6.76
2018-01-30T01:15:20.890Z,6.78
2018-01-30T01:17:50.095Z,6.78
2018-01-30T01:20:19.311Z,6.83
2018-01-30T01:22:49.362Z,6.83
2018-01-30T01:25:18.894Z,6.82
2018-01-30T01:27:48.113Z,6.81
2018-01-30T01:30:17.297Z,6.81
2018-01-30T01:32:46.667Z,6.78
2018-01-30T01:35:15.871Z,6.78
2018-01-30T01:37:45.093Z,6.79
2018-01-30T01:40:15.273Z,6.76
2018-01-30T01:42:46.182Z,6.70
2018-01-30T01:45:16.150Z,6.66
2018-01-30T01:47:45.418Z,6.63
2018-01-30T01:50:14.723Z,6.63
2018-01-30T01:52:43.931Z,6.63
2018-01-30T01:55:13.182Z,6.61
2018-01-30T01:57:42.365Z,6.57
2018-01-30T02:00:11.549Z,6.50
2018-01-30T02:02:40.766Z,6.45
2018-01-30T02:05:10.826Z,6.40
2018-01-30T02:07:40.098Z,6.38
2018-01-30T02:10:10.064Z,6.30
2018-01-30T02:12:39.278Z,6.29
2018-01-30T02:15:08.502Z,6.29
2018-01-30T02:17:37.728Z,6.27
2018-01-30T02:20:06.894Z,6.24
2018-01-30T02:22:36.090Z,6.23
2018-01-30T02:25:05.296Z,6.17
2018-01-30T02:27:35.310Z,6.11
2018-01-30T02:30:04.577Z,6.05
2018-01-30T02:32:34.586Z,6.04
2018-01-30T02:35:03.837Z,6.00
2018-01-30T02:37:33.834Z,5.96
2018-01-30T02:40:03.109Z,5.88
2018-01-30T02:42:32.342Z,5.80
2018-01-30T02:45:01.583Z,5.74
2018-01-30T02:47:30.869Z,5.74
2018-01-30T02:50:00.069Z,5.71
2018-01-30T02:52:29.311Z,5.68
2018-01-30T02:54:58.540Z,5.66
2018-01-30T02:57:28.530Z,5.67
2018-01-30T02:59:57.745Z,5.62
2018-01-30T03:02:27.017Z,5.58
2018-01-30T03:04:56.260Z,5.58
2018-01-30T03:07:26.219Z,5.59
2018-01-30T03:09:55.417Z,5.58
2018-01-30T03:12:24.631Z,5.55
2018-01-30T03:14:55.355Z,5.54
2018-01-30T03:17:24.590Z,5.52
2018-01-30T03:19:54.581Z,5.50
2018-01-30T03:22:23.839Z,5.50
2018-01-30T03:24:53.074Z,5.51
2018-01-30T03:27:22.296Z,5.49
2018-01-30T03:29:51.520Z,5.47
2018-01-30T03:32:20.790Z,5.42
2018-01-30T03:34:50.022Z,5.43
2018-01-30T03:37:19.274Z,5.39
2018-01-30T03:39:48.490Z,5.38
2018-01-30T03:42:18.479Z,5.35
2018-01-30T03:44:47.866Z,5.34
2018-01-30T03:47:17.110Z,5.35
2018-01-30T03:49:46.447Z,5.36
2018-01-30T03:52:15.666Z,5.34
2018-01-30T03:54:44.880Z,5.33
2018-01-30T03:57:14.266Z,5.33
2018-01-30T03:59:43.468Z,5.32
2018-01-30T04:02:12.669Z,5.30
2018-01-30T04:04:41.882Z,5.25
2018-01-30T04:07:11.882Z,5.24
2018-01-30T04:09:41.897Z,5.23
2018-01-30T04:12:12.710Z,5.18
2018-01-30T04:14:41.867Z,5.16
2018-01-30T04:17:11.195Z,5.15
2018-01-30T04:19:40.426Z,5.13
2018-01-30T04:22:09.635Z,5.12
2018-01-30T04:24:38.841Z,5.10
2018-01-30T04:27:08.811Z,5.04
2018-01-30T04:29:38.022Z,5.03
2018-01-30T04:32:07.256Z,5.00
2018-01-30T04:34:37.217Z,5.04
2018-01-30T04:37:06.442Z,5.05
2018-01-30T04:39:35.669Z,5.05
2018-01-30T04:42:05.166Z,5.02
2018-01-30T04:44:34.412Z,5.09
2018-01-30T04:47:03.662Z,5.11
2018-01-30T04:49:33.677Z,5.12
2018-01-30T04:52:03.652Z,5.13
2018-01-30T04:54:32.876Z,5.14
2018-01-30T04:57:02.092Z,5.18
2018-01-30T04:59:32.100Z,5.14
2018-01-30T05:02:01.369Z,5.17
2018-01-30T05:04:30.620Z,5.19
2018-01-30T05:06:59.883Z,5.21
2018-01-30T05:09:29.136Z,5.23
2018-01-30T05:11:58.475Z,5.25
2018-01-30T05:14:27.702Z,5.29
2018-01-30T05:16:58.411Z,5.30
2018-01-30T05:19:27.694Z,5.30
2018-01-30T05:21:57.095Z,5.31
2018-01-30T05:24:26.291Z,5.29
2018-01-30T05:26:55.603Z,5.29
2018-01-30T05:29:24.809Z,5.23
2018-01-30T05:31:54.060Z,5.25
2018-01-30T05:34:23.334Z,5.31
2018-01-30T05:36:53.354Z,5.26
2018-01-30T05:39:22.579Z,5.28
2018-01-30T05:41:51.791Z,5.32
2018-01-30T05:44:21.084Z,5.31
2018-01-30T05:46:50.386Z,5.27
2018-01-30T05:49:19.601Z,5.32
2018-01-30T05:51:48.956Z,5.31
2018-01-30T05:54:18.163Z,5.37
2018-01-30T05:56:47.376Z,5.35
2018-01-30T05:59:16.705Z,5.33
2018-01-30T06:01:45.940Z,5.34
2018-01-30T06:04:15.910Z,5.35
2018-01-30T06:06:45.120Z,5.36
2018-01-30T06:09:14.360Z,5.36
2018-01-30T06:11:43.558Z,5.41
2018-01-30T06:14:12.771Z,5.40
2018-01-30T06:16:42.002Z,5.38
2018-01-30T06:19:11.199Z,5.36
2018-01-30T06:21:40.406Z,5.38
2018-01-30T06:24:09.656Z,5.40
2018-01-30T06:26:38.923Z,5.38
2018-01-30T06:29:08.095Z,5.40
2018-01-30T06:31:37.334Z,5.38
2018-01-30T06:34:07.340Z,5.37
2018-01-30T06:36:37.313Z,5.38
2018-01-30T06:39:06.507Z,5.41
2018-01-30T06:41:35.722Z,5.39
2018-01-30T06:44:04.935Z,5.29
2018-01-30T06:46:34.188Z,5.29
2018-01-30T06:49:07.191Z,5.32
2018-01-30T06:51:37.312Z,5.34
2018-01-30T06:54:06.631Z,5.29
2018-01-30T06:56:36.676Z,5.30
2018-01-30T06:59:05.908Z,5.30
2018-01-30T07:01:35.157Z,5.32
2018-01-30T07:04:04.334Z,5.33
2018-01-30T07:06:34.368Z,5.32
2018-01-30T07:09:04.402Z,5.35
2018-01-30T07:11:34.371Z,5.32
2018-01-30T07:14:03.611Z,5.35
2018-01-30T07:16:33.588Z,5.36
2018-01-30T07:19:02.811Z,5.37
2018-01-30T07:21:32.790Z,5.37
2018-01-30T07:24:02.014Z,5.36
2018-01-30T07:26:31.220Z,5.35
2018-01-30T07:29:01.239Z,5.37
2018-01-30T07:31:31.235Z,5.36
2018-01-30T07:34:00.499Z,5.38
2018-01-30T07:36:29.699Z,5.41
2018-01-30T07:38:59.926Z,5.42
2018-01-30T07:41:29.210Z,5.43
2018-01-30T07:43:59.189Z,5.43
2018-01-30T07:46:29.393Z,5.43
2018-01-30T07:48:58.611Z,5.43
2018-01-30T07:51:28.637Z,5.39
2018-01-30T07:53:58.758Z,5.39
2018-01-30T07:56:28.730Z,5.36
2018-01-30T07:58:58.023Z,5.37
2018-01-30T08:01:27.264Z,5.31
2018-01-30T08:03:56.614Z,5.31
2018-01-30T08:06:25.841Z,5.31
2018-01-30T08:08:55.208Z,5.33
2018-01-30T08:11:24.443Z,5.31
2018-01-30T08:13:53.676Z,5.32
2018-01-30T08:16:22.979Z,5.34
2018-01-30T08:18:52.923Z,5.35
2018-01-30T08:21:22.964Z,5.40
2018-01-30T08:23:52.166Z,5.42
2018-01-30T08:26:21.354Z,5.45
2018-01-30T08:28:50.590Z,5.41
2018-01-30T08:31:19.983Z,5.45
2018-01-30T08:33:49.591Z,5.48
2018-01-30T08:36:19.567Z,5.50
2018-01-30T08:38:48.800Z,5.53
2018-01-30T08:41:18.814Z,5.56
2018-01-30T08:43:48.018Z,5.61
2018-01-30T08:46:17.495Z,5.66
2018-01-30T08:48:46.676Z,5.64
2018-01-30T08:51:15.890Z,5.70
2018-01-30T08:53:45.188Z,5.71
2018-01-30T08:56:14.426Z,5.82
2018-01-30T08:58:43.665Z,5.84
2018-01-30T09:01:12.958Z,5.94
2018-01-30T09:03:42.163Z,6.01
2018-01-30T09:06:11.419Z,6.07
2018-01-30T09:08:40.603Z,6.14
2018-01-30T09:11:10.594Z,6.14
2018-01-30T09:13:39.797Z,6.23
2018-01-30T09:16:09.029Z,6.20
2018-01-30T09:18:38.250Z,6.26
2018-01-30T09:21:07.521Z,6.28
2018-01-30T09:23:36.728Z,6.32
2018-01-30T09:26:05.960Z,6.38
2018-01-30T09:28:35.410Z,6.43
2018-01-30T09:31:04.940Z,6.50
2018-01-30T09:33:34.139Z,6.52
2018-01-30T09:36:03.398Z,6.51
2018-01-30T09:38:33.399Z,6.61
2018-01-30T09:41:02.614Z,6.66
2018-01-30T09:43:32.608Z,6.67
2018-01-30T09:46:01.858Z,6.69
2018-01-30T09:48:31.099Z,6.71
2018-01-30T09:51:00.307Z,6.77
2018-01-30T09:53:29.530Z,6.77
2018-01-30T09:55:59.514Z,6.84
2018-01-30T09:58:28.788Z,6.87
2018-01-30T10:00:58.808Z,6.87
2018-01-30T10:03:28.147Z,6.86
2018-01-30T10:05:57.370Z,6.85
2018-01-30T10:08:26.602Z,6.92
2018-01-30T10:10:55.855Z,6.93
2018-01-30T10:13:25.262Z,6.97
2018-01-30T10:15:54.476Z,6.93
2018-01-30T10:18:23.691Z,6.87
2018-01-30T10:20:52.903Z,6.93
2018-01-30T10:23:22.923Z,6.94
2018-01-30T10:25:52.910Z,7.00
2018-01-30T10:28:22.197Z,7.05
2018-01-30T10:30:51.466Z,7.17
2018-01-30T10:33:21.722Z,7.26
2018-01-30T10:35:51.326Z,7.34
2018-01-30T10:38:20.521Z,7.47
2018-01-30T10:40:49.732Z,7.58
2018-01-30T10:43:18.950Z,7.61
2018-01-30T10:45:48.183Z,7.64
2018-01-30T10:48:17.398Z,7.61
2018-01-30T10:50:46.595Z,7.65
2018-01-30T10:53:16.610Z,7.66
2018-01-30T10:55:45.846Z,7.69
2018-01-30T10:58:15.150Z,7.76
2018-01-30T11:00:44.399Z,7.84
2018-01-30T11:03:14.502Z,7.92
2018-01-30T11:05:45.458Z,7.99
2018-01-30T11:08:15.592Z,7.96
2018-01-30T11:10:44.822Z,7.85
2018-01-30T11:13:14.172Z,7.75
2018-01-30T11:15:43.847Z,7.71
2018-01-30T11:18:13.237Z,7.68
2018-01-30T11:20:42.497Z,7.75
2018-01-30T11:23:11.723Z,7.83
2018-01-30T11:25:41.011Z,7.89
2018-01-30T11:28:10.299Z,7.91
2018-01-30T11:30:40.996Z,7.97
2018-01-30T11:33:10.284Z,7.97
2018-01-30T11:35:39.607Z,8.05
2018-01-30T11:38:08.865Z,8.07
2018-01-30T11:40:38.172Z,8.09
2018-01-30T11:43:07.363Z,8.10
2018-01-30T11:45:36.620Z,8.08
2018-01-30T11:48:05.996Z,8.09
2018-01-30T11:50:35.975Z,8.05
2018-01-30T11:53:05.241Z,8.03
2018-01-30T11:55:35.249Z,8.04
2018-01-30T11:58:04.579Z,8.02
2018-01-30T12:00:34.089Z,7.98
2018-01-30T12:03:03.320Z,7.98
2018-01-30T12:05:34.159Z,8.00
2018-01-30T12:08:03.593Z,8.07
2018-01-30T12:10:32.898Z,8.12
2018-01-30T12:13:02.135Z,8.17
2018-01-30T12:15:31.376Z,8.27
2018-01-30T12:18:01.466Z,8.32
2018-01-30T12:20:30.680Z,8.41
2018-01-30T12:22:59.993Z,8.49
2018-01-30T12:25:29.225Z,8.52
2018-01-30T12:27:58.482Z,8.53
2018-01-30T12:30:28.497Z,8.53
2018-01-30T12:32:57.798Z,8.58
2018-01-30T12:35:27.857Z,8.62
2018-01-30T12:37:57.091Z,8.68
2018-01-30T12:40:26.299Z,8.66
2018-01-30T12:42:55.666Z,8.64
2018-01-30T12:45:24.854Z,8.64
2018-01-30T12:47:54.064Z,8.55
2018-01-30T12:50:23.600Z,8.46
2018-01-30T12:52:52.842Z,8.40
2018-01-30T12:55:22.067Z,8.40
2018-01-30T12:57:51.369Z,8.28
2018-01-30T13:00:20.619Z,8.25
2018-01-30T13:02:49.839Z,8.26
2018-01-30T13:05:19.107Z,8.27
2018-01-30T13:07:49.064Z,8.27
2018-01-30T13:10:18.311Z,8.29
2018-01-30T13:12:47.597Z,8.22
2018-01-30T13:15:16.866Z,8.19
2018-01-30T13:17:46.094Z,8.21
2018-01-30T13:20:15.332Z,8.24
2018-01-30T13:22:44.570Z,8.24
2018-01-30T13:25:13.792Z,8.22
2018-01-30T13:27:43.016Z,8.22
2018-01-30T13:30:13.239Z,8.27
2018-01-30T13:32:43.422Z,8.33
2018-01-30T13:35:12.654Z,8.34
2018-01-30T13:37:41.867Z,8.34
2018-01-30T13:40:11.078Z,8.35
2018-01-30T13:42:40.306Z,8.37
2018-01-30T13:45:11.046Z,8.37
2018-01-30T13:47:42.032Z,8.32
2018-01-30T13:50:11.254Z,8.30
2018-01-30T13:52:40.478Z,8.19
2018-01-30T13:55:12.074Z,8.18
2018-01-30T13:57:41.329Z,8.14
2018-01-30T14:00:10.743Z,8.07
2018-01-30T14:02:39.975Z,8.09
2018-01-30T14:05:09.979Z,8.10
2018-01-30T14:07:39.941Z,8.12
2018-01-30T14:10:09.213Z,8.08
2018-01-30T14:12:38.412Z,8.07
2018-01-30T14:15:07.656Z,8.08
2018-01-30T14:17:36.874Z,8.01
2018-01-30T14:20:06.893Z,8.02
2018-01-30T14:22:37.643Z,8.02
2018-01-30T14:25:06.880Z,8.01
2018-01-30T14:27:36.131Z,8.01
2018-01-30T14:30:06.123Z,8.00
2018-01-30T14:32:36.887Z,7.98
2018-01-30T14:35:06.914Z,7.92
2018-01-30T14:37:36.880Z,7.88
2018-01-30T14:40:06.905Z,7.83
2018-01-30T14:42:36.125Z,7.79
2018-01-30T14:45:06.132Z,7.77
2018-01-30T14:47:36.142Z,7.71
2018-01-30T14:50:05.336Z,7.69
2018-01-30T14:52:35.317Z,7.67
2018-01-30T14:55:04.621Z,7.66
2018-01-30T14:57:33.960Z,7.63
2018-01-30T15:00:03.142Z,7.59
2018-01-30T15:02:32.378Z,7.53
2018-01-30T15:05:02.351Z,7.52
2018-01-30T15:07:31.662Z,7.48
2018-01-30T15:10:00.871Z,7.52
2018-01-30T15:12:30.086Z,7.55
2018-01-30T15:14:59.321Z,7.52
2018-01-30T15:17:28.557Z,7.54
2018-01-30T15:19:58.582Z,7.52
2018-01-30T15:22:28.582Z,7.54
2018-01-30T15:24:57.828Z,7.54
2018-01-30T15:27:27.046Z,7.54
2018-01-30T15:29:56.294Z,7.55
2018-01-30T15:32:25.551Z,7.53
2018-01-30T15:34:54.817Z,7.50
2018-01-30T15:37:24.021Z,7.48
2018-01-30T15:39:53.279Z,7.45
2018-01-30T15:42:22.492Z,7.42
2018-01-30T15:44:51.734Z,7.39
2018-01-30T15:47:20.975Z,7.35
2018-01-30T15:49:50.235Z,7.30
2018-01-30T15:52:19.449Z,7.26
2018-01-30T15:54:48.690Z,7.18
2018-01-30T15:57:18.178Z,7.17
2018-01-30T15:59:47.426Z,7.15
2018-01-30T16:02:16.672Z,7.06
2018-01-30T16:04:46.704Z,6.93
2018-01-30T16:07:16.660Z,6.86
2018-01-30T16:09:45.903Z,6.82
2018-01-30T16:12:15.152Z,6.78
2018-01-30T16:14:44.346Z,6.75
2018-01-30T16:17:13.597Z,6.69
2018-01-30T16:19:43.587Z,6.53
2018-01-30T16:22:12.826Z,6.50
2018-01-30T16:24:42.040Z,6.47
2018-01-30T16:27:12.014Z,6.42
2018-01-30T16:29:41.211Z,6.31
2018-01-30T16:32:12.056Z,6.29
2018-01-30T16:34:42.075Z,6.24
2018-01-30T16:37:12.095Z,6.16
2018-01-30T16:39:42.080Z,6.10
2018-01-30T16:42:11.290Z,6.03
2018-01-30T16:44:40.539Z,5.94
2018-01-30T16:47:09.757Z,5.78
2018-01-30T16:49:40.112Z,5.75
2018-01-30T16:52:09.337Z,5.72
2018-01-30T16:54:39.320Z,5.66
2018-01-30T16:57:08.535Z,5.56
2018-01-30T16:59:38.546Z,5.59
2018-01-30T17:02:07.815Z,5.54
2018-01-30T17:04:37.151Z,5.50
2018-01-30T17:07:07.145Z,5.48
2018-01-30T17:09:36.383Z,5.48
2018-01-30T17:12:05.634Z,5.45
2018-01-30T17:14:34.899Z,5.41
2018-01-30T17:17:04.115Z,5.36
2018-01-30T17:19:33.566Z,5.35
2018-01-30T17:22:03.789Z,5.23
2018-01-30T17:24:33.755Z,5.25
2018-01-30T17:27:03.324Z,5.21
2018-01-30T17:29:32.632Z,5.24
2018-01-30T17:32:02.623Z,5.24
2018-01-30T17:34:32.630Z,5.24
2018-01-30T17:37:01.885Z,5.20
2018-01-30T17:39:31.126Z,5.11
2018-01-30T17:42:00.366Z,5.09
2018-01-30T17:44:29.577Z,5.05
2018-01-30T17:46:58.841Z,5.03
2018-01-30T17:49:28.133Z,5.03
2018-01-30T17:51:57.383Z,4.97
2018-01-30T17:54:26.579Z,4.84
2018-01-30T17:56:55.816Z,4.87
2018-01-30T17:59:25.799Z,4.87
2018-01-30T18:01:55.010Z,4.89
2018-01-30T18:04:24.227Z,4.84
2018-01-30T18:06:54.260Z,4.83
2018-01-30T18:09:24.451Z,4.89
2018-01-30T18:11:53.808Z,4.86
2018-01-30T18:14:23.016Z,4.85
2018-01-30T18:16:52.256Z,4.81
2018-01-30T18:19:22.258Z,4.72
2018-01-30T18:21:51.588Z,4.75
2018-01-30T18:24:20.820Z,4.69
2018-01-30T18:26:50.032Z,4.62
2018-01-30T18:29:19.278Z,4.63
2018-01-30T18:31:49.282Z,4.53
2018-01-30T18:34:19.325Z,4.50
2018-01-30T18:36:48.571Z,4.42
2018-01-30T18:39:17.830Z,4.44
2018-01-30T18:41:47.074Z,4.42
2018-01-30T18:44:16.352Z,4.39
2018-01-30T18:46:45.550Z,4.40
2018-01-30T18:49:14.758Z,4.38
2018-01-30T18:51:44.059Z,4.36
2018-01-30T18:54:13.298Z,4.37
2018-01-30T18:56:42.555Z,4.36
2018-01-30T18:59:11.809Z,4.33
2018-01-30T19:01:41.072Z,4.25
2018-01-30T19:04:10.282Z,4.23
2018-01-30T19:06:41.015Z,4.21
2018-01-30T19:09:11.087Z,4.23
2018-01-30T19:11:40.350Z,4.24
2018-01-30T19:14:09.629Z,4.26
2018-01-30T19:16:39.635Z,4.22
2018-01-30T19:19:09.623Z,4.22
2018-01-30T19:21:39.299Z,4.22
2018-01-30T19:24:09.312Z,4.21
2018-01-30T19:26:38.589Z,4.21
2018-01-30T19:29:08.615Z,4.20
2018-01-30T19:31:38.675Z,4.19
2018-01-30T19:34:07.914Z,4.18
2018-01-30T19:36:37.899Z,4.20
2018-01-30T19:39:07.180Z,4.24
2018-01-30T19:41:36.417Z,4.27
2018-01-30T19:44:06.427Z,4.24
2018-01-30T19:46:35.670Z,4.28
2018-01-30T19:49:04.906Z,4.34
2018-01-30T19:51:34.285Z,4.35
2018-01-30T19:54:03.560Z,4.38
2018-01-30T19:56:32.812Z,4.42
2018-01-30T19:59:02.063Z,4.48
2018-01-30T20:01:31.318Z,4.55
2018-01-30T20:04:00.603Z,4.55
2018-01-30T20:06:29.904Z,4.60
2018-01-30T20:08:59.210Z,4.54
2018-01-30T20:11:28.743Z,4.60
2018-01-30T20:13:58.727Z,4.70
2018-01-30T20:16:28.252Z,4.73
2018-01-30T20:18:58.395Z,4.74
2018-01-30T20:21:27.705Z,4.76
2018-01-30T20:23:57.812Z,4.78
2018-01-30T20:26:32.570Z,4.74
2018-01-30T20:29:02.515Z,4.75
2018-01-30T20:31:32.711Z,4.75
2018-01-30T20:34:02.696Z,4.78
2018-01-30T20:36:32.087Z,4.78
2018-01-30T20:39:01.313Z,4.81
2018-01-30T20:41:30.555Z,4.83
2018-01-30T20:43:59.822Z,4.83
2018-01-30T20:46:29.024Z,4.88
2018-01-30T20:48:58.285Z,4.94
2018-01-30T20:51:28.277Z,5.00
2018-01-30T20:53:58.306Z,5.01
2018-01-30T20:56:28.339Z,5.05
2018-01-30T20:58:57.569Z,5.07
2018-01-30T21:01:26.831Z,5.05
2018-01-30T21:03:56.158Z,5.06
2018-01-30T21:06:25.367Z,5.05
2018-01-30T21:08:54.604Z,5.12
2018-01-30T21:11:24.623Z,5.16
2018-01-30T21:13:54.633Z,5.16
2018-01-30T21:16:24.614Z,5.13
2018-01-30T21:18:53.896Z,5.20
2018-01-30T21:21:23.230Z,5.23
2018-01-30T21:23:52.721Z,5.17
2018-01-30T21:26:22.463Z,5.20
2018-01-30T21:28:51.670Z,5.22
2018-01-30T21:31:20.927Z,5.21
2018-01-30T21:33:50.134Z,5.23
2018-01-30T21:36:19.366Z,5.20
2018-01-30T21:38:49.523Z,5.15
2018-01-30T21:41:18.750Z,5.06
2018-01-30T21:43:47.967Z,5.05
2018-01-30T21:46:17.200Z,5.12
2018-01-30T21:48:47.167Z,5.15
2018-01-30T21:51:16.405Z,5.13
2018-01-30T21:53:46.460Z,5.15
2018-01-30T21:56:16.698Z,5.17
2018-01-30T21:58:46.011Z,5.16
2018-01-30T22:01:15.239Z,5.13
2018-01-30T22:03:45.237Z,5.16
2018-01-30T22:06:14.515Z,5.16
2018-01-30T22:08:43.727Z,5.18
2018-01-30T22:11:13.019Z,5.17
2018-01-30T22:13:42.220Z,5.16
2018-01-30T22:16:12.210Z,5.20
2018-01-30T22:18:41.404Z,5.21
2018-01-30T22:21:10.621Z,5.28
2018-01-30T22:23:39.880Z,5.28
2018-01-30T22:26:09.130Z,5.27
2018-01-30T22:28:38.357Z,5.36
2018-01-30T22:31:07.570Z,5.38
2018-01-30T22:33:36.786Z,5.43
2018-01-30T22:36:06.060Z,5.49
2018-01-30T22:38:35.222Z,5.52
2018-01-30T22:41:04.427Z,5.57
2018-01-30T22:43:34.425Z,5.58
2018-01-30T22:46:03.721Z,5.64
